Pagina principale
METAR-TAF:

METAR-TAF

Aeroporti :

Florennes, Belgio

latitudine: 50-14N, longitudine: 004-39E, altezza: 279 m

Osservazione

Il bollettino è stato emesso 24 minuti fa, alle 18:55 UTC
Vento 6 kt da ovest
Temperature 16°C
Umidità 68%
Pressione 1016 hPa
Visibilità 10 km o più

METAR: EBFS 201855Z AUTO 28006KT 9999 BKN060/// 16/10 Q1016 BLU

Ora: 21:19 (19:19 UTC)

Previsione

Il bollettino è stato emesso 3 ore e 38 minuti fa, alle 15:41 UTC
Previsione valida dal 20 alle 19 UTC al 21 alle 07 UTC
Vento 6 kt da ovest
Visibilità 10 km o più
Nubi sparse ad un'altezza di 4000 ft
Nuvoloso ad un'altezza di 8000 ft
Evoluzione graduale
dal 21 alle 00 UTC al 21 alle 02 UTC
Poco nuvoloso ad un'altezza di 6000 ft
Nubi sparse ad un'altezza di 24000 ft

TAF: EBFS 201541Z 2019/2107 27006KT 9999 SCT040 BKN080 BECMG 2100/2102 FEW060 SCT240

Osservazioni e previsioni meteorologiche di più di 4000 aeroporti (messaggi METAR e TAF).

Le stazioni disponibili sono rappresentate dai dischi gialli e rossi sulla carta.

Puntare il mouse per vedere il nome della stazione.

Clicca sopra per visualizzare le osservazioni e previsioni meteorologiche.

Per cambiare la mappa : fare clic sui pulsanti verdi con una croce nera per ingrandire, il pulsante verde con un trattino per diminuire, o sulla freccia verde per le mappe adiacenti.


METAR-TAF: